Aeroporto :
LOGIN :

Iscrizione | Disclaimer

   EN    FR    IT 

 










Sommario :    VFR   VFR Marginale   IFR   IFR Intensivo   IFR Molto Intensivo
Visibilità : 
Base nubi : 
>= 8 km
>= 3000ft
5 / 8 km
1000 / 3000 ft
1500m / 5 km
500 / 1000 ft
800 / 1500m
200 / 500 ft
< 800m
< 200 ft
Simboli :   Temporali  Nebbia  Neve Forte  Precipitazioni Forti  Vento > 20 kt
SIGMETs :   Varie  Temporali  Ghiacco  Turbolenza  Onda orograficha  Ceneri Vulcaniche






- Altitudine del aeroporto : 24 ft
- Codice IATA : SGD


EKSB - Sonderborg

ULTIMO METAR :
  • 250050Z AUTO 25016G28KT 220V280 9999NDV SCT017/// 08/04 Q0990

METARs OBSOLETI :
  • 250020Z AUTO 24012G22KT 210V270 9999NDV BKN013/// 08/06 Q0990
  • 242350Z AUTO 24008G18KT 190V270 9000NDV -SHRA BKN005/// BKN033/// 07/06 Q0990
  • 242320Z AUTO 19006KT 130V220 9999NDV -RA OVC005/// 05/04 Q0990
  • 242250Z AUTO 16007KT 9999NDV -RA BKN005/// 04/03 Q0991
  • 242220Z AUTO 15010KT 4500NDV -RASN BR OVC005/// 03/03 Q0992

Previsioni scadute.



MetMap, La meteo Aeronautica in un colpo d'occhio ! - Copyright ORBIFLY Dicembre 2007 - Disclaimer

ORBIFLY MET'MAP TEAM :

Programmazione e sviluppo : Alexandra Zaïnal
Concezione : Baudouin d'Aumeries
Aiuto per la programmazione : Marc-Olivier Méhu
Supporto tecnico e logistico : Manuel Goepfert
Aiuto per la traduzione : Arnaldo La Scala

Contatto : metmap@orbifly.com




FONTI E CREDITI :

   NOAA